Time;durP1;ratioP1;P1;durP2;ratioP2;P2;SDS_P1;SDS_P2;PMS_P1;PMS_P2;Temp;Humidity;BMP_temperature;BMP_pressure;BME280_temperature;BME280_humidity;BME280_pressure;Samples;Min_cycle;Max_cycle;Signal;HPM_P1;HPM_P2
2022/06/23 00:02:18;;;;;;;4.50;3.40;;;16.40;99.90;;;;;;5096910;27;20088;-75
2022/06/23 00:04:47;;;;;;;5.55;3.30;;;16.30;99.90;;;;;;5095655;27;20057;-75
2022/06/23 00:07:26;;;;;;;5.03;3.20;;;16.30;99.90;;;;;;5113551;27;20038;-75
2022/06/23 00:09:57;;;;;;;4.78;3.20;;;16.30;99.90;;;;;;5111813;27;20115;-75
2022/06/23 00:12:38;;;;;;;4.18;3.60;;;16.20;99.90;;;;;;5112187;27;20039;-75
2022/06/23 00:15:04;;;;;;;4.38;2.97;;;16.20;99.90;;;;;;5106652;27;20122;-75
2022/06/23 00:17:31;;;;;;;4.15;3.17;;;16.20;99.90;;;;;;5097620;27;20153;-75
2022/06/23 00:20:06;;;;;;;5.05;3.25;;;16.20;99.90;;;;;;5113455;27;20061;-75
2022/06/23 00:22:33;;;;;;;7.22;3.78;;;16.20;99.90;;;;;;5114270;27;20077;-75
2022/06/23 00:25:04;;;;;;;3.80;3.05;;;16.10;99.90;;;;;;5096384;27;20174;-75
2022/06/23 00:27:35;;;;;;;6.20;3.88;;;16.00;99.90;;;;;;5114704;27;20074;-75
2022/06/23 00:30:06;;;;;;;5.65;3.53;;;16.00;99.90;;;;;;5086992;27;20058;-75
2022/06/23 00:32:32;;;;;;;4.78;3.40;;;16.00;99.90;;;;;;5132078;27;20102;-75
2022/06/23 00:35:05;;;;;;;5.47;3.70;;;16.00;99.90;;;;;;5114008;27;20063;-75
2022/06/23 00:37:31;;;;;;;4.30;3.33;;;15.90;99.90;;;;;;5115226;27;20357;-75
2022/06/23 00:40:06;;;;;;;4.80;3.63;;;15.90;99.90;;;;;;5097840;27;20091;-75
2022/06/23 00:42:36;;;;;;;6.35;3.72;;;15.90;99.90;;;;;;5107813;27;20052;-75
2022/06/23 00:45:12;;;;;;;5.13;3.70;;;15.90;99.90;;;;;;5096518;27;20047;-75
2022/06/23 00:47:41;;;;;;;5.30;3.28;;;15.90;99.90;;;;;;5113493;27;20031;-75
2022/06/23 00:50:27;;;;;;;8.13;4.10;;;15.90;99.90;;;;;;5112054;27;20039;-75
2022/06/23 00:53:22;;;;;;;5.38;3.38;;;15.80;99.90;;;;;;5111654;27;20043;-75
2022/06/23 00:56:13;;;;;;;3.83;3.38;;;15.80;99.90;;;;;;5074012;27;20075;-75
2022/06/23 00:58:47;;;;;;;4.82;3.28;;;15.70;99.90;;;;;;5114026;27;20052;-75
2022/06/23 01:01:17;;;;;;;4.53;3.47;;;15.70;99.90;;;;;;5112985;27;20039;-75
2022/06/23 01:03:55;;;;;;;5.18;3.40;;;15.60;99.90;;;;;;5114668;27;20055;-75
2022/06/23 01:06:35;;;;;;;6.05;3.50;;;15.60;99.90;;;;;;5113554;27;20085;-75
2022/06/23 01:09:41;;;;;;;5.10;3.47;;;15.50;99.90;;;;;;5125632;27;20031;-75
2022/06/23 01:12:22;;;;;;;5.68;3.53;;;15.50;99.90;;;;;;5028730;28;20729;-75
2022/06/23 01:14:54;;;;;;;7.50;3.70;;;15.50;99.90;;;;;;5102888;28;20039;-75
2022/06/23 01:17:43;;;;;;;6.53;3.90;;;15.50;99.90;;;;;;5111177;27;20071;-75
2022/06/23 01:20:35;;;;;;;6.70;4.10;;;15.50;99.90;;;;;;5109327;27;20398;-75
2022/06/23 01:23:28;;;;;;;6.38;3.88;;;15.50;99.90;;;;;;5111029;28;20054;-75
2022/06/23 01:26:21;;;;;;;4.63;3.70;;;15.50;99.90;;;;;;5112858;27;20121;-75
2022/06/23 01:28:49;;;;;;;6.03;3.92;;;15.50;99.90;;;;;;5091684;27;20055;-75
2022/06/23 01:31:23;;;;;;;5.15;4.13;;;15.40;99.90;;;;;;5110386;28;20147;-75
2022/06/23 01:34:17;;;;;;;6.00;4.20;;;15.40;99.90;;;;;;5111920;28;20039;-76
2022/06/23 01:36:54;;;;;;;4.95;4.07;;;15.40;99.90;;;;;;5094906;28;20394;-75
2022/06/23 01:39:27;;;;;;;7.68;4.50;;;15.30;99.90;;;;;;5112299;28;20051;-76
2022/06/23 01:42:18;;;;;;;5.05;4.07;;;15.30;99.90;;;;;;5109627;28;20058;-76
2022/06/23 01:45:05;;;;;;;6.32;3.97;;;15.20;99.90;;;;;;5110473;28;20047;-76
2022/06/23 01:47:39;;;;;;;6.88;5.13;;;15.20;99.90;;;;;;5110777;28;20047;-76
2022/06/23 01:50:33;;;;;;;7.03;4.65;;;15.20;99.90;;;;;;5130809;28;20508;-75
2022/06/23 01:53:08;;;;;;;7.25;5.15;;;15.20;99.90;;;;;;5081213;28;20174;-76
2022/06/23 01:56:03;;;;;;;7.30;4.78;;;15.10;99.90;;;;;;5084623;28;20039;-75
2022/06/23 01:58:53;;;;;;;6.50;4.10;;;15.10;99.90;;;;;;5086460;28;20043;-75
2022/06/23 02:01:42;;;;;;;6.55;4.05;;;15.10;99.90;;;;;;5089148;28;20054;-75
2022/06/23 02:04:24;;;;;;;7.07;4.63;;;15.10;99.90;;;;;;5075716;28;20367;-75
2022/06/23 02:07:03;;;;;;;7.00;5.10;;;15.10;99.90;;;;;;5105064;28;20071;-75
2022/06/23 02:09:37;;;;;;;7.75;4.88;;;15.00;99.90;;;;;;5113005;28;20075;-75
2022/06/23 02:12:15;;;;;;;7.32;5.05;;;15.00;99.90;;;;;;5096593;28;20150;-75
2022/06/23 02:14:54;;;;;;;6.13;4.63;;;15.00;99.90;;;;;;5109062;28;20110;-75
2022/06/23 02:17:44;;;;;;;5.68;4.47;;;15.00;99.90;;;;;;5112890;28;20043;-76
2022/06/23 02:20:38;;;;;;;5.38;4.53;;;14.90;99.90;;;;;;5111273;28;20047;-76
2022/06/23 02:23:13;;;;;;;5.82;4.93;;;14.90;99.90;;;;;;5089706;28;20494;-75
2022/06/23 02:25:48;;;;;;;7.50;4.80;;;14.90;99.90;;;;;;5109935;28;20043;-76
2022/06/23 02:28:26;;;;;;;6.75;4.95;;;14.80;99.90;;;;;;5112408;28;20031;-75
2022/06/23 02:31:00;;;;;;;7.38;4.95;;;14.80;99.90;;;;;;5113929;27;20051;-76
2022/06/23 02:33:34;;;;;;;8.43;5.00;;;14.80;99.90;;;;;;5116904;27;20074;-76
2022/06/23 02:36:21;;;;;;;6.30;4.80;;;14.80;99.90;;;;;;5099448;27;20556;-76
2022/06/23 02:38:57;;;;;;;6.03;4.88;;;14.80;99.90;;;;;;5100077;27;20039;-76
2022/06/23 02:41:29;;;;;;;6.57;4.60;;;14.70;99.90;;;;;;5098457;27;20043;-76
2022/06/23 02:44:13;;;;;;;8.32;5.00;;;14.70;99.90;;;;;;5097779;27;20126;-75
2022/06/23 02:46:52;;;;;;;6.80;5.13;;;14.70;99.90;;;;;;5095985;27;20095;-75
2022/06/23 02:49:21;;;;;;;6.22;4.75;;;14.70;99.90;;;;;;5112214;27;20042;-76
2022/06/23 02:52:13;;;;;;;6.70;5.57;;;14.60;99.90;;;;;;5108383;27;20047;-76
2022/06/23 02:54:56;;;;;;;6.13;4.97;;;14.60;99.90;;;;;;5099812;27;20082;-75
2022/06/23 02:57:43;;;;;;;6.65;5.55;;;14.50;99.90;;;;;;5099488;27;20387;-76
2022/06/23 03:00:34;;;;;;;6.20;5.00;;;14.50;99.90;;;;;;5112766;27;20079;-76
2022/06/23 03:03:08;;;;;;;5.93;5.18;;;14.50;99.90;;;;;;5116570;27;20038;-75
2022/06/23 03:05:40;;;;;;;7.25;5.50;;;14.40;99.90;;;;;;5098252;27;20078;-76
2022/06/23 03:08:16;;;;;;;6.90;5.03;;;14.40;99.90;;;;;;5116840;27;20347;-75
2022/06/23 03:10:52;;;;;;;5.85;5.05;;;14.30;99.90;;;;;;5128491;27;20039;-75
2022/06/23 03:13:33;;;;;;;7.90;5.20;;;14.30;99.90;;;;;;5099304;27;20092;-75
2022/06/23 03:16:08;;;;;;;8.07;5.40;;;14.30;99.90;;;;;;5111755;27;20403;-75
2022/06/23 03:18:46;;;;;;;6.60;5.60;;;14.20;99.90;;;;;;5097492;27;20249;-76
2022/06/23 03:21:23;;;;;;;7.03;5.50;;;14.20;99.90;;;;;;5113601;27;20463;-75
2022/06/23 03:24:02;;;;;;;9.38;5.28;;;14.20;99.90;;;;;;5128331;27;20067;-76
2022/06/23 03:27:06;;;;;;;6.25;5.25;;;14.20;99.90;;;;;;5099049;27;20047;-75
2022/06/23 03:29:34;;;;;;;5.90;5.20;;;14.20;99.90;;;;;;5080947;28;20043;-75
2022/06/23 03:32:16;;;;;;;9.15;5.70;;;14.20;99.90;;;;;;5112296;28;20360;-75
2022/06/23 03:34:54;;;;;;;7.45;5.55;;;14.20;99.90;;;;;;5108896;28;20039;-76
2022/06/23 03:37:31;;;;;;;7.07;6.07;;;14.20;99.90;;;;;;5109461;28;20036;-75
2022/06/23 03:43:34;;;;;;;7.38;5.90;;;14.10;99.90;;;;;;5101737;28;20047;-76
2022/06/23 03:46:11;;;;;;;7.35;5.78;;;14.10;99.90;;;;;;5111060;28;20375;-76
2022/06/23 03:48:46;;;;;;;7.47;5.60;;;14.10;99.90;;;;;;5113574;28;20039;-76
2022/06/23 03:51:23;;;;;;;8.73;6.55;;;14.10;99.90;;;;;;5108273;28;20479;-75
2022/06/23 03:54:04;;;;;;;9.05;6.15;;;14.00;99.90;;;;;;5107037;28;20040;-76
2022/06/23 03:56:37;;;;;;;7.90;5.38;;;14.00;99.90;;;;;;5089012;28;20046;-75
2022/06/23 03:59:31;;;;;;;7.40;6.03;;;14.00;99.90;;;;;;5112829;28;20032;-75
2022/06/23 04:02:09;;;;;;;9.70;6.35;;;14.00;99.90;;;;;;5100619;28;20055;-76
2022/06/23 04:04:51;;;;;;;8.07;6.07;;;14.00;99.90;;;;;;5093685;28;20083;-75
2022/06/23 04:07:29;;;;;;;7.43;6.22;;;14.00;99.90;;;;;;5110518;28;20089;-75
2022/06/23 04:10:12;;;;;;;8.45;6.35;;;14.00;99.90;;;;;;5110931;28;20396;-75
2022/06/23 04:12:46;;;;;;;8.65;6.30;;;14.10;99.90;;;;;;5089398;28;20042;-76
2022/06/23 04:15:26;;;;;;;9.65;6.50;;;14.10;99.90;;;;;;5112452;28;20119;-75
2022/06/23 04:17:57;;;;;;;9.18;6.60;;;14.10;99.90;;;;;;5108662;28;20043;-76
2022/06/23 04:20:35;;;;;;;10.00;6.70;;;14.10;99.90;;;;;;5090321;28;20044;-76
2022/06/23 04:23:12;;;;;;;8.80;6.45;;;14.10;99.90;;;;;;5108664;28;20044;-75
2022/06/23 04:26:12;;;;;;;9.15;6.55;;;14.10;99.90;;;;;;5106208;28;20047;-75
2022/06/23 04:28:51;;;;;;;11.00;6.75;;;14.20;99.90;;;;;;5096940;28;20048;-76
2022/06/23 04:31:32;;;;;;;7.97;6.18;;;14.10;99.90;;;;;;5109719;27;20031;-75
2022/06/23 04:33:59;;;;;;;8.90;6.30;;;14.20;99.90;;;;;;5111285;27;20054;-75
2022/06/23 04:36:28;;;;;;;7.95;6.63;;;14.20;99.90;;;;;;5088412;28;20048;-76
2022/06/23 04:39:17;;;;;;;10.05;7.18;;;14.20;99.90;;;;;;5095860;27;20039;-76
2022/06/23 04:41:48;;;;;;;8.93;6.88;;;14.30;99.90;;;;;;5097611;27;20059;-76
2022/06/23 04:44:25;;;;;;;10.57;7.00;;;14.30;99.90;;;;;;5111452;27;20039;-75
2022/06/23 04:46:56;;;;;;;9.57;6.93;;;14.30;99.90;;;;;;5110488;27;20039;-76
2022/06/23 04:49:40;;;;;;;7.07;5.95;;;14.30;99.90;;;;;;5130464;27;20038;-75
2022/06/23 04:52:28;;;;;;;8.65;6.70;;;14.40;99.90;;;;;;5132049;27;20440;-76
2022/06/23 04:55:18;;;;;;;7.88;6.32;;;14.50;99.90;;;;;;5112347;27;20043;-75
2022/06/23 04:58:06;;;;;;;10.27;7.35;;;14.50;99.90;;;;;;5096876;27;20540;-76
2022/06/23 05:00:42;;;;;;;10.18;6.95;;;14.60;99.90;;;;;;5089913;27;20040;-76
2022/06/23 05:03:36;;;;;;;10.52;6.82;;;14.60;99.90;;;;;;5114816;27;20042;-76
2022/06/23 05:06:35;;;;;;;8.80;6.88;;;14.60;99.90;;;;;;5114102;27;20069;-76
2022/06/23 05:09:21;;;;;;;10.68;7.20;;;14.70;99.90;;;;;;5083450;27;20683;-76
2022/06/23 05:11:50;;;;;;;10.07;7.35;;;14.80;99.90;;;;;;5095675;27;20042;-76
2022/06/23 05:14:20;;;;;;;8.82;6.95;;;14.90;99.90;;;;;;5113597;28;20026;-76
2022/06/23 05:16:51;;;;;;;10.80;7.45;;;14.90;99.90;;;;;;5094347;27;20042;-75
2022/06/23 05:19:31;;;;;;;11.82;7.78;;;15.00;99.90;;;;;;5132479;27;20053;-76
2022/06/23 05:22:00;;;;;;;11.10;7.70;;;15.00;99.90;;;;;;5129329;27;20035;-76
2022/06/23 05:24:33;;;;;;;11.55;7.45;;;15.20;99.90;;;;;;5131921;27;20043;-76
2022/06/23 05:27:03;;;;;;;10.98;7.63;;;15.20;99.90;;;;;;5104231;27;20119;-76
2022/06/23 05:29:37;;;;;;;10.20;7.53;;;14.50;99.90;;;;;;5113715;28;20054;-75
2022/06/23 05:32:13;;;;;;;10.23;8.27;;;15.40;99.90;;;;;;5125869;28;20432;-76
2022/06/23 05:34:51;;;;;;;13.52;7.85;;;15.40;99.90;;;;;;5114638;28;20043;-75
2022/06/23 05:37:29;;;;;;;8.88;7.32;;;15.50;99.90;;;;;;5124084;28;20032;-75
2022/06/23 05:40:19;;;;;;;11.73;7.95;;;15.60;99.90;;;;;;5095260;28;20107;-76
2022/06/23 05:42:48;;;;;;;10.68;8.10;;;15.70;99.90;;;;;;5129296;28;20066;-75
2022/06/23 05:45:21;;;;;;;12.48;8.00;;;15.70;99.90;;;;;;5132769;28;20082;-76
2022/06/23 05:47:47;;;;;;;10.55;7.80;;;15.80;99.90;;;;;;5130657;28;20067;-76
2022/06/23 05:50:20;;;;;;;13.40;8.57;;;15.90;99.90;;;;;;5113186;28;20098;-76
2022/06/23 05:53:05;;;;;;;10.35;7.95;;;16.00;99.90;;;;;;5112735;28;20043;-76
2022/06/23 05:55:44;;;;;;;12.68;8.07;;;16.10;99.90;;;;;;5126650;27;20047;-76
2022/06/23 05:58:28;;;;;;;9.52;7.85;;;16.10;99.90;;;;;;5111750;28;20498;-76
2022/06/23 06:01:10;;;;;;;11.18;8.15;;;16.20;99.90;;;;;;5112180;28;20039;-75
2022/06/23 06:04:04;;;;;;;11.98;7.95;;;16.30;99.90;;;;;;5130076;28;20039;-76
2022/06/23 06:06:31;;;;;;;10.07;8.65;;;16.40;99.90;;;;;;5059325;28;20061;-76
2022/06/23 06:11:51;;;;;;;11.90;8.15;;;16.60;99.90;;;;;;5114273;27;20050;-76
2022/06/23 06:14:23;;;;;;;15.63;8.88;;;16.70;99.90;;;;;;5102866;28;20065;-76
2022/06/23 06:16:49;;;;;;;11.90;8.10;;;16.70;99.90;;;;;;5127155;27;20039;-76
2022/06/23 06:19:19;;;;;;;11.20;7.93;;;16.80;99.90;;;;;;5063607;27;20040;-76
2022/06/23 06:21:46;;;;;;;13.52;8.88;;;17.00;99.90;;;;;;5133379;27;20035;-77
2022/06/23 06:24:23;;;;;;;11.73;8.63;;;17.10;99.90;;;;;;5114658;27;20110;-76
2022/06/23 06:26:53;;;;;;;11.38;8.07;;;17.20;99.90;;;;;;5112803;27;20083;-76
2022/06/23 06:29:40;;;;;;;11.60;8.02;;;17.40;99.90;;;;;;5131417;27;20051;-76
2022/06/23 06:32:21;;;;;;;14.55;8.30;;;17.60;99.90;;;;;;5112498;27;20090;-77
2022/06/23 06:35:01;;;;;;;11.32;7.85;;;17.80;99.90;;;;;;5094982;27;20118;-76
2022/06/23 06:37:32;;;;;;;10.93;8.38;;;18.00;99.90;;;;;;5100768;27;20034;-76
2022/06/23 06:40:03;;;;;;;13.43;7.90;;;18.20;99.90;;;;;;5099446;27;20043;-75
2022/06/23 06:42:41;;;;;;;16.35;7.72;;;18.50;99.90;;;;;;5133070;27;20058;-76
2022/06/23 06:45:11;;;;;;;12.05;8.45;;;18.60;99.90;;;;;;5116639;27;20035;-75
2022/06/23 06:47:39;;;;;;;11.50;7.68;;;18.80;99.90;;;;;;5134693;27;20171;-75
2022/06/23 06:50:39;;;;;;;10.05;7.32;;;19.10;99.90;;;;;;5096631;27;20035;-75
2022/06/23 06:53:14;;;;;;;11.95;7.00;;;19.20;99.90;;;;;;5108603;27;20562;-76
2022/06/23 06:55:48;;;;;;;25.63;8.82;;;19.50;99.90;;;;;;5115102;27;20521;-76
2022/06/23 06:58:33;;;;;;;10.95;6.85;;;19.70;99.90;;;;;;5113709;27;20049;-76
2022/06/23 07:01:06;;;;;;;21.90;7.97;;;19.80;99.90;;;;;;5091705;27;20036;-75
2022/06/23 07:03:35;;;;;;;12.25;7.43;;;20.10;99.90;;;;;;5113364;27;20047;-75
2022/06/23 07:06:42;;;;;;;11.65;7.40;;;20.30;99.90;;;;;;5116249;27;20039;-76
2022/06/23 07:09:31;;;;;;;13.05;7.43;;;20.60;99.90;;;;;;5084124;27;20051;-76
2022/06/23 07:12:25;;;;;;;15.98;7.57;;;20.80;99.90;;;;;;5117369;27;20043;-76
2022/06/23 07:15:12;;;;;;;10.10;6.82;;;21.00;99.90;;;;;;5129325;27;20476;-76
2022/06/23 07:17:46;;;;;;;12.75;6.65;;;21.10;99.90;;;;;;5113488;27;20054;-76
2022/06/23 07:20:30;;;;;;;12.35;7.22;;;21.30;99.90;;;;;;5116602;27;20061;-76
2022/06/23 07:23:10;;;;;;;10.95;6.35;;;21.40;99.90;;;;;;5114157;27;20047;-76
2022/06/23 07:25:41;;;;;;;11.43;6.78;;;21.60;99.90;;;;;;5130847;27;20047;-76
2022/06/23 07:28:14;;;;;;;13.35;6.90;;;21.70;99.90;;;;;;5132145;27;20039;-76
2022/06/23 07:30:49;;;;;;;9.20;6.32;;;21.90;99.90;;;;;;5116276;27;20487;-76
2022/06/23 07:33:34;;;;;;;10.27;6.35;;;22.00;99.90;;;;;;5133447;27;20064;-76
2022/06/23 07:36:23;;;;;;;11.30;6.35;;;22.30;99.90;;;;;;5091351;27;20039;-76
2022/06/23 07:38:54;;;;;;;9.50;6.55;;;22.50;99.90;;;;;;5105539;27;20522;-76
2022/06/23 07:41:23;;;;;;;9.40;6.32;;;22.80;99.90;;;;;;5108870;27;20061;-77
2022/06/23 07:44:07;;;;;;;11.02;5.90;;;23.20;99.90;;;;;;5092288;27;20050;-77
2022/06/23 07:46:37;;;;;;;7.43;6.10;;;23.50;99.90;;;;;;5097580;27;20049;-77
2022/06/23 07:49:04;;;;;;;7.68;5.70;;;23.80;99.90;;;;;;5092323;27;20045;-77
2022/06/23 07:51:30;;;;;;;12.98;5.47;;;24.20;99.90;;;;;;5090498;27;20411;-77
2022/06/23 07:53:56;;;;;;;7.15;5.40;;;24.50;99.90;;;;;;5097256;27;20364;-77
2022/06/23 07:56:26;;;;;;;9.70;5.78;;;24.80;99.90;;;;;;5095787;27;20505;-77
2022/06/23 07:58:59;;;;;;;10.85;5.38;;;25.10;99.90;;;;;;5114347;27;20043;-77
2022/06/23 08:01:30;;;;;;;7.40;4.90;;;25.20;99.90;;;;;;5096448;27;20046;-77
2022/06/23 08:04:10;;;;;;;6.22;4.85;;;25.20;99.90;;;;;;5099828;27;20051;-77
2022/06/23 08:06:37;;;;;;;9.27;5.20;;;25.40;99.90;;;;;;5113296;27;20035;-77
2022/06/23 08:09:24;;;;;;;7.57;4.97;;;25.50;99.90;;;;;;5116153;27;20054;-77
2022/06/23 08:14:40;;;;;;;8.85;4.90;;;25.70;99.60;;;;;;5097497;27;20046;-78
2022/06/23 08:17:14;;;;;;;6.30;4.13;;;25.80;99.30;;;;;;5095828;28;20049;-78
2022/06/23 08:20:00;;;;;;;9.25;4.80;;;26.00;98.90;;;;;;5096797;27;20073;-78
2022/06/23 08:22:30;;;;;;;8.48;4.53;;;26.10;98.00;;;;;;5094340;28;20039;-78
2022/06/23 08:25:00;;;;;;;6.93;4.15;;;26.20;98.30;;;;;;5114032;27;20035;-78
2022/06/23 08:27:30;;;;;;;8.93;4.70;;;26.30;98.20;;;;;;5103716;28;20031;-78
2022/06/23 08:30:09;;;;;;;8.88;4.30;;;26.50;96.40;;;;;;5073839;27;20050;-78
2022/06/23 08:32:38;;;;;;;7.40;4.53;;;26.60;95.50;;;;;;5086861;27;20031;-78
2022/06/23 08:35:13;;;;;;;8.65;3.97;;;26.60;94.80;;;;;;5108073;27;20185;-78
2022/06/23 08:38:04;;;;;;;7.45;3.80;;;26.70;94.60;;;;;;5091924;27;20034;-76
2022/06/23 08:41:07;;;;;;;7.38;4.05;;;26.90;95.10;;;;;;5107577;27;20461;-78
2022/06/23 08:43:41;;;;;;;8.38;4.05;;;27.00;95.40;;;;;;5106415;27;20038;-78
2022/06/23 08:46:12;;;;;;;8.02;4.20;;;27.10;95.10;;;;;;5105629;27;20099;-76
2022/06/23 08:48:56;;;;;;;9.60;4.40;;;27.30;94.50;;;;;;5106859;27;20031;-76
2022/06/23 08:51:41;;;;;;;7.75;4.20;;;27.40;93.20;;;;;;5075415;27;20409;-76
2022/06/23 08:54:44;;;;;;;8.88;4.10;;;27.50;93.00;;;;;;5105343;28;20558;-76
2022/06/23 08:57:21;;;;;;;6.93;4.22;;;27.60;92.90;;;;;;5075032;27;20046;-76
2022/06/23 09:00:00;;;;;;;6.30;4.28;;;27.70;92.40;;;;;;5108540;27;20514;-76
2022/06/23 09:02:56;;;;;;;7.85;4.70;;;27.80;91.60;;;;;;5105036;27;20034;-76
2022/06/23 09:06:23;;;;;;;10.73;4.40;;;27.90;91.30;;;;;;5090753;27;21432;-76
2022/06/23 09:09:03;;;;;;;9.50;4.22;;;27.90;91.30;;;;;;5049502;27;20043;-76
2022/06/23 09:11:41;;;;;;;7.32;4.20;;;28.00;91.30;;;;;;5089765;27;20050;-76
2022/06/23 09:14:48;;;;;;;8.55;4.15;;;28.10;90.70;;;;;;5103958;27;20403;-76
2022/06/23 09:17:39;;;;;;;10.63;4.20;;;28.30;90.70;;;;;;5007827;27;20105;-76
2022/06/23 09:20:11;;;;;;;9.65;4.00;;;28.40;91.00;;;;;;5107391;27;20039;-76
2022/06/23 09:23:04;;;;;;;6.15;3.30;;;28.50;88.60;;;;;;5085178;27;20114;-76
2022/06/23 09:25:50;;;;;;;7.93;4.60;;;28.60;90.20;;;;;;5076476;27;20131;-76
2022/06/23 09:28:45;;;;;;;8.00;3.97;;;28.70;87.20;;;;;;5089700;28;20027;-75
2022/06/23 09:31:31;;;;;;;9.90;4.43;;;28.80;87.80;;;;;;5046774;27;20078;-77
2022/06/23 09:34:26;;;;;;;8.23;3.88;;;28.90;87.90;;;;;;5090013;28;20483;-77
2022/06/23 09:37:06;;;;;;;7.88;4.10;;;29.10;87.10;;;;;;5013000;28;20112;-77
2022/06/23 09:40:02;;;;;;;8.52;3.85;;;29.10;85.40;;;;;;5103265;28;20031;-78
2022/06/23 09:42:52;;;;;;;4.57;3.38;;;29.20;85.40;;;;;;5106895;28;20494;-76
2022/06/23 09:45:33;;;;;;;8.45;3.97;;;29.10;81.30;;;;;;5106036;28;20035;-77
2022/06/23 09:48:30;;;;;;;10.07;4.10;;;29.00;85.10;;;;;;5087226;28;20080;-77
2022/06/23 09:51:11;;;;;;;9.85;4.95;;;29.00;84.60;;;;;;5101079;28;20074;-77
2022/06/23 09:53:42;;;;;;;5.68;3.30;;;29.00;84.20;;;;;;5085409;28;20034;-77
2022/06/23 09:56:14;;;;;;;6.63;3.53;;;29.00;84.20;;;;;;5105552;28;20035;-77
2022/06/23 09:58:58;;;;;;;6.45;3.13;;;29.00;81.90;;;;;;5089213;28;20043;-77
2022/06/23 10:01:40;;;;;;;5.55;3.05;;;29.10;81.40;;;;;;5089345;28;20068;-77
2022/06/23 10:04:26;;;;;;;7.63;2.88;;;29.10;82.40;;;;;;5103999;28;20039;-78
2022/06/23 10:06:57;;;;;;;;;;;29.10;84.00;;;;;;5107759;28;20055;-78
2022/06/23 10:09:35;;;;;;;5.95;3.13;;;29.20;82.80;;;;;;5090632;28;19915;-78
2022/06/23 10:12:20;;;;;;;8.30;3.67;;;29.10;83.00;;;;;;5085801;28;20039;-79
2022/06/23 10:15:23;;;;;;;6.15;3.20;;;29.20;82.00;;;;;;5074724;28;20065;-79
2022/06/23 10:18:10;;;;;;;7.78;3.58;;;29.20;83.70;;;;;;5107663;28;20051;-79
2022/06/23 10:20:45;;;;;;;7.22;2.70;;;29.20;81.20;;;;;;5097118;28;20039;-79
2022/06/23 10:23:36;;;;;;;6.38;3.25;;;29.20;80.60;;;;;;5106758;28;20703;-76
2022/06/23 10:26:31;;;;;;;6.68;3.17;;;29.20;79.40;;;;;;5072856;28;20406;-77
2022/06/23 10:29:26;;;;;;;5.53;3.35;;;29.00;80.40;;;;;;5107380;28;20127;-77
2022/06/23 10:32:15;;;;;;;5.57;3.13;;;28.90;82.90;;;;;;5089494;28;20035;-78
2022/06/23 10:35:16;;;;;;;8.13;3.22;;;28.80;81.50;;;;;;5088872;28;20130;-77
2022/06/23 10:38:03;;;;;;;6.43;3.00;;;28.70;80.20;;;;;;5074917;28;20078;-79
2022/06/23 10:40:50;;;;;;;6.53;2.85;;;28.70;80.10;;;;;;5088427;28;20134;-79
2022/06/23 10:43:37;;;;;;;8.13;3.17;;;28.70;82.10;;;;;;5104447;28;20042;-77
2022/06/23 10:46:23;;;;;;;6.88;2.80;;;28.70;80.70;;;;;;5088520;28;20097;-78
2022/06/23 10:49:16;;;;;;;5.25;2.70;;;28.60;81.70;;;;;;5087408;28;20039;-78
2022/06/23 10:52:26;;;;;;;8.95;3.38;;;28.70;82.30;;;;;;5106670;27;20039;-78
2022/06/23 10:55:28;;;;;;;6.07;3.00;;;28.70;79.10;;;;;;4998488;28;20102;-78
2022/06/23 10:58:03;;;;;;;;;;;28.70;77.50;;;;;;5087190;27;20031;-79
2022/06/23 11:00:58;;;;;;;4.57;2.92;;;28.60;78.40;;;;;;5090718;27;20323;-78
2022/06/23 11:04:04;;;;;;;6.90;3.07;;;28.60;78.80;;;;;;5109040;27;20031;-78
2022/06/23 11:07:00;;;;;;;10.77;3.22;;;28.60;80.00;;;;;;5076877;27;20302;-79
2022/06/23 11:09:42;;;;;;;4.85;2.95;;;28.80;79.30;;;;;;5077638;27;20039;-79
2022/06/23 11:12:26;;;;;;;7.05;3.75;;;28.80;79.80;;;;;;5110948;27;20054;-78
2022/06/23 11:15:04;;;;;;;5.30;2.88;;;28.90;79.60;;;;;;5078705;27;20067;-78
2022/06/23 11:18:13;;;;;;;6.03;3.33;;;29.10;79.60;;;;;;5093780;27;20043;-79
2022/06/23 11:20:57;;;;;;;7.38;2.70;;;29.20;79.70;;;;;;5109625;27;20043;-78
2022/06/23 11:23:32;;;;;;;5.55;2.50;;;29.40;79.10;;;;;;5110376;27;20479;-78
2022/06/23 11:26:30;;;;;;;4.07;2.50;;;29.50;79.40;;;;;;5111676;27;20055;-78
2022/06/23 11:29:08;;;;;;;6.90;2.80;;;29.50;78.70;;;;;;5080198;28;20078;-78
2022/06/23 11:31:55;;;;;;;5.00;2.67;;;29.70;76.40;;;;;;5103900;28;20130;-78
2022/06/23 11:34:37;;;;;;;3.60;2.50;;;29.70;76.50;;;;;;5106158;28;20050;-78
2022/06/23 11:37:11;;;;;;;7.57;3.00;;;29.90;78.00;;;;;;5088446;28;20134;-78
2022/06/23 11:39:54;;;;;;;5.55;2.50;;;30.00;75.50;;;;;;5088663;28;20160;-78
2022/06/23 11:42:56;;;;;;;4.85;2.35;;;30.10;73.50;;;;;;5106275;28;20044;-78
2022/06/23 11:46:03;;;;;;;7.75;2.40;;;30.10;73.50;;;;;;5105528;28;20134;-78
2022/06/23 11:49:06;;;;;;;5.78;2.60;;;30.30;75.20;;;;;;5087312;28;20066;-78
2022/06/23 11:51:31;;;;;;;4.00;2.47;;;30.50;74.60;;;;;;5087033;28;20130;-79
2022/06/23 11:54:12;;;;;;;8.27;2.70;;;30.70;74.20;;;;;;5085416;28;20519;-78
2022/06/23 11:57:16;;;;;;;4.30;2.60;;;30.80;73.20;;;;;;5088094;28;20043;-79
2022/06/23 12:00:03;;;;;;;5.10;2.42;;;30.90;72.70;;;;;;5088835;28;20460;-79
2022/06/23 12:02:30;;;;;;;4.70;2.53;;;31.00;73.50;;;;;;5088488;28;20557;-78
2022/06/23 12:05:28;;;;;;;8.82;2.47;;;30.90;74.00;;;;;;5105873;28;20039;-78
2022/06/23 12:08:29;;;;;;;4.30;2.28;;;31.00;71.90;;;;;;5114466;27;20090;-78
2022/06/23 12:10:55;;;;;;;3.95;2.63;;;31.10;70.50;;;;;;5072740;28;20100;-79
2022/06/23 12:13:24;;;;;;;4.70;2.13;;;31.30;66.80;;;;;;5102049;28;20048;-77
2022/06/23 12:15:52;;;;;;;8.27;2.60;;;31.30;66.20;;;;;;5103074;28;20539;-79
2022/06/23 12:18:24;;;;;;;7.35;2.42;;;31.30;66.50;;;;;;5084069;28;20129;-79
2022/06/23 12:21:04;;;;;;;6.30;3.00;;;31.40;66.50;;;;;;5086885;28;20042;-77
2022/06/23 12:23:38;;;;;;;6.70;2.55;;;31.40;67.50;;;;;;5081670;28;20530;-77
2022/06/23 12:26:19;;;;;;;6.00;2.17;;;31.60;65.40;;;;;;5104778;28;20134;-77
2022/06/23 12:29:05;;;;;;;6.70;2.55;;;31.80;65.60;;;;;;5107581;27;20055;-77
2022/06/23 12:31:49;;;;;;;6.68;2.70;;;32.00;65.80;;;;;;5080050;27;20178;-77
2022/06/23 12:34:30;;;;;;;6.10;2.80;;;32.20;64.50;;;;;;5107895;27;20134;-77
2022/06/23 12:37:18;;;;;;;7.93;2.53;;;32.40;64.90;;;;;;5103041;27;20051;-78
2022/06/23 12:40:06;;;;;;;5.10;2.78;;;32.80;63.20;;;;;;5087040;27;20104;-75
2022/06/23 12:42:45;;;;;;;10.55;3.00;;;32.90;62.30;;;;;;5088917;27;20124;-75
2022/06/23 12:45:30;;;;;;;5.28;2.78;;;33.20;61.50;;;;;;5122257;27;20047;-76
2022/06/23 12:48:23;;;;;;;7.22;2.70;;;33.40;59.80;;;;;;5088941;27;20463;-76
2022/06/23 12:51:07;;;;;;;8.43;2.65;;;33.60;61.20;;;;;;5091043;27;20467;-76
2022/06/23 12:53:33;;;;;;;4.87;3.10;;;33.70;60.70;;;;;;5104800;27;20043;-76
2022/06/23 12:56:32;;;;;;;15.25;3.53;;;33.90;60.00;;;;;;5108226;27;20139;-78
2022/06/23 12:59:10;;;;;;;5.22;2.80;;;34.20;58.60;;;;;;5077051;27;20031;-77
2022/06/23 13:01:46;;;;;;;6.63;3.40;;;34.30;59.30;;;;;;5107787;27;20125;-76
2022/06/23 13:04:22;;;;;;;6.57;2.70;;;34.40;58.50;;;;;;5108785;27;20115;-76
2022/06/23 13:06:56;;;;;;;3.92;2.30;;;34.70;58.90;;;;;;5090042;27;20057;-76
2022/06/23 13:09:47;;;;;;;4.32;2.58;;;34.90;60.00;;;;;;5107450;27;20459;-76
2022/06/23 13:12:15;;;;;;;6.25;3.67;;;35.30;58.40;;;;;;5092556;27;20139;-76
2022/06/23 13:14:50;;;;;;;5.88;2.88;;;35.50;57.40;;;;;;5107327;27;20548;-76
2022/06/23 13:17:53;;;;;;;5.70;2.75;;;35.50;56.80;;;;;;5106888;27;20123;-76
2022/06/23 13:20:42;;;;;;;3.63;2.60;;;35.60;56.50;;;;;;5106498;27;20047;-76
2022/06/23 13:23:20;;;;;;;4.75;2.70;;;35.70;56.60;;;;;;5106347;27;20112;-77
2022/06/23 13:26:01;;;;;;;4.55;3.00;;;35.70;56.20;;;;;;5091125;28;20051;-77
2022/06/23 13:28:37;;;;;;;6.47;3.20;;;35.70;57.30;;;;;;5108277;27;20039;-78
2022/06/23 13:31:23;;;;;;;8.05;2.72;;;35.90;57.80;;;;;;5087635;28;20091;-77
2022/06/23 13:33:58;;;;;;;4.70;2.80;;;36.20;56.00;;;;;;5106445;28;20037;-77
2022/06/23 13:36:36;;;;;;;5.90;2.90;;;36.20;55.90;;;;;;5104669;28;20224;-77
2022/06/23 13:39:35;;;;;;;5.53;3.22;;;36.20;55.20;;;;;;5083814;28;20042;-77
2022/06/23 13:42:21;;;;;;;5.63;2.80;;;36.10;55.70;;;;;;5113450;28;20065;-77
2022/06/23 13:44:57;;;;;;;6.75;2.60;;;36.30;55.20;;;;;;5085173;28;20043;-77
2022/06/23 13:47:39;;;;;;;4.97;2.80;;;36.30;55.20;;;;;;5085940;28;20159;-77
2022/06/23 13:50:20;;;;;;;9.07;3.90;;;36.30;54.60;;;;;;5100734;28;20042;-77
2022/06/23 13:53:16;;;;;;;3.78;2.50;;;36.20;53.60;;;;;;5102607;28;20046;-77
2022/06/23 13:56:03;;;;;;;6.85;3.10;;;36.00;53.90;;;;;;5089355;28;20110;-77
2022/06/23 13:58:47;;;;;;;5.93;2.75;;;35.70;54.30;;;;;;5107087;28;20074;-77
2022/06/23 14:01:25;;;;;;;3.50;2.70;;;35.50;55.20;;;;;;5103403;28;20051;-77
2022/06/23 14:04:10;;;;;;;9.00;2.85;;;35.60;53.80;;;;;;5105662;28;20040;-77
2022/06/23 14:06:51;;;;;;;6.60;2.90;;;35.50;54.30;;;;;;5107327;28;20042;-78